Mount Pleasant, TX

3:39 PM CDT on August 03, 2015 (GMT -0500)
Union Hill Road at CR 4640 | | Change Station
CLOSE
Current Station
Personal Weather Station
Location: Mount Pleasant, TX
Elevation: 425 ft
Nearby Weather Stations

Elev 425 ft 33.09 °N, 94.90 °W | Updated 16 seconds ago

Partly Cloudy
Partly Cloudy
99.6 °F
Feels Like 102 °F
N
1.0
Wind Variable Wind from NE
Gusts 4.0 mph

Today
High -- | Low -- °F
--% Chance of Precip.
Yesterday
High -- | Low -- °F
Precip. -- in
6:34 AM 8:17 PM
Waning Gibbous, 84% visible
Pressure 29.91 in
Visibility 10.0 miles
Clouds Scattered Clouds 8500 ft
Heat Index 102 °F
Dew Point 64 °F
Humidity 31%
Rainfall 0.00 in
Snow Depth Not available.
UV 8 out of 12
Pollen 5.70 out of 12
Air Quality Not available.
Flu Activity Not available.
METAR KOSA 032015Z AUTO 17006KT 10SM SCT085 37/13 A2991 RMK AO1 T03710132

More Conditions Fewer Conditions

Pressure 29.91 in
Visibility 10.0 miles
Clouds Scattered Clouds 8500 ft
Heat Index 102 °F
Dew Point 64 °F
Humidity 31%
Rainfall 0.00 in
Snow Depth Not available.
UV 8 out of 12
Pollen 5.70 out of 12
Air Quality Not available.
Flu Activity Not available.
METAR KOSA 032015Z AUTO 17006KT 10SM SCT085 37/13 A2991 RMK AO1 T03710132

More Conditions Fewer Conditions

10-Day Weather Forecast

×

Almanac

Astronomy

Aug. 03, 2015 Rise Set
Actual Time
Civil Twilight
Nautical Twilight
Astronomical Twilight
Moon
Length of Visible Light
Length of Day
Tomorrow will be .
, % of the Moon is Illuminated

Today's Extremes

State Highs State Lows

Community

WunderPhotos

Upload Photos

1,843,743 photos uploaded!

WunderBlogs® & News

Nearby

Air Quality

  Air Quality AQ Index Pollutant
Not available.

Snow Depth

Station Depth Elevation

Earthquake Activity

City Distance Mag. Time & Date
Minimum magnitude displayed is 2.5.

Coastal Water Temperatures

Place Temperature

Stations

Nearby Weather Stations

Station Location Temp. Windchill Dew Point Humidity Wind Precip. Elev Updated Type